CheckWX is a tool to help pilots better visualize weather data.  It is not intended as a substitute for an official pre-flight weather briefing.

20:47:16 UTC

KARV METAR
Lakeland / Noble F Lee Memorial Field Airport
Minocqua-Woodruff, Wisconsin, USA
Current

12 mins ago

KARV 202035Z AUTO 20014KT 10SM CLR 19/M04 A2976 RMK AO2 T01851039
Observed
Apr-20 @ 20:35 UTC
Wind
  • 200° at 14 KTS
Visibility
10 SM
Flight Rules
VFR
Cloud Levels
  • Clear skies
Temperature
19°C / 66°F
Dewpoint
-4°C / 25°F
Humidity
21%
Altimeter
29.76" Hg
Pressure
1007.82 hPa
Previous

32 mins ago

KARV 202015Z AUTO 22010G16KT 10SM CLR 19/M04 A2977 RMK AO2 T01941038
Observed
Apr-20 @ 20:15 UTC
Wind
  • 220° at 10 KTS
  • Gusting to 16 KTS
Visibility
10 SM
Flight Rules
VFR
Cloud Levels
  • Clear skies
Temperature
19°C / 66°F
Dewpoint
-4°C / 25°F
Humidity
21%
Altimeter
29.77" Hg
Pressure
1008.12 hPa
Previous

52 mins ago

KARV 201955Z AUTO 20011G19KT 10SM CLR 19/M05 A2977 RMK AO2 T01871048
Observed
Apr-20 @ 19:55 UTC
Wind
  • 200° at 11 KTS
  • Gusting to 19 KTS
Visibility
10 SM
Flight Rules
VFR
Cloud Levels
  • Clear skies
Temperature
19°C / 66°F
Dewpoint
-5°C / 23°F
Humidity
19%
Altimeter
29.77" Hg
Pressure
1008.12 hPa